createdAt,value
2023-05-10T00:02:05.502Z,19.10
2023-05-10T00:04:32.011Z,19.10
2023-05-10T00:06:58.451Z,19.10
2023-05-10T00:09:24.957Z,19.20
2023-05-10T00:11:51.453Z,19.10
2023-05-10T00:14:17.939Z,19.10
2023-05-10T00:16:44.505Z,19.10
2023-05-10T00:19:11.085Z,19.10
2023-05-10T00:21:37.618Z,19.10
2023-05-10T00:24:04.129Z,19.10
2023-05-10T00:26:30.613Z,19.10
2023-05-10T00:28:57.090Z,19.10
2023-05-10T00:31:23.694Z,19.10
2023-05-10T00:33:50.227Z,19.10
2023-05-10T00:36:16.717Z,19.10
2023-05-10T00:38:43.198Z,19.30
2023-05-10T00:41:11.479Z,19.10
2023-05-10T00:43:37.944Z,19.10
2023-05-10T00:46:04.482Z,19.10
2023-05-10T00:48:30.991Z,19.10
2023-05-10T00:50:57.469Z,19.10
2023-05-10T00:53:23.933Z,19.10
2023-05-10T00:55:50.440Z,19.10
2023-05-10T00:58:16.926Z,19.00
2023-05-10T01:00:47.534Z,19.00
2023-05-10T01:03:14.108Z,19.10
2023-05-10T01:05:40.721Z,19.10
2023-05-10T01:08:07.221Z,19.10
2023-05-10T01:10:33.705Z,19.00
2023-05-10T01:13:00.326Z,19.00
2023-05-10T01:15:26.882Z,19.10
2023-05-10T01:17:53.392Z,19.00
2023-05-10T01:20:20.001Z,19.00
2023-05-10T01:22:46.582Z,19.00
2023-05-10T01:25:13.066Z,19.10
2023-05-10T01:27:41.529Z,19.00
2023-05-10T01:30:15.503Z,19.00
2023-05-10T01:32:42.776Z,19.00
2023-05-10T01:35:09.265Z,19.00
2023-05-10T01:37:35.758Z,19.00
2023-05-10T01:40:02.205Z,19.10
2023-05-10T01:42:28.700Z,19.00
2023-05-10T01:44:55.187Z,18.80
2023-05-10T01:47:21.690Z,18.90
2023-05-10T01:49:48.203Z,19.00
2023-05-10T01:52:14.689Z,19.00
2023-05-10T01:54:41.172Z,18.90
2023-05-10T01:57:07.662Z,19.00
2023-05-10T01:59:34.158Z,18.90
2023-05-10T02:02:00.650Z,18.90
2023-05-10T02:04:29.521Z,18.90
2023-05-10T02:06:56.027Z,18.90
2023-05-10T02:09:22.537Z,18.90
2023-05-10T02:11:49.055Z,19.00
2023-05-10T02:14:15.550Z,18.90
2023-05-10T02:16:42.070Z,18.90
2023-05-10T02:19:08.580Z,18.90
2023-05-10T02:21:35.044Z,18.90
2023-05-10T02:24:01.554Z,18.90
2023-05-10T02:26:28.022Z,19.10
2023-05-10T02:28:54.511Z,18.90
2023-05-10T02:31:21.177Z,19.00
2023-05-10T02:33:47.698Z,18.90
2023-05-10T02:36:14.192Z,18.90
2023-05-10T02:38:40.677Z,18.90
2023-05-10T02:41:07.158Z,19.00
2023-05-10T02:43:33.652Z,19.00
2023-05-10T02:46:00.254Z,18.70
2023-05-10T02:48:26.767Z,18.80
2023-05-10T02:50:53.250Z,18.80
2023-05-10T02:53:23.617Z,18.90
2023-05-10T02:55:50.139Z,18.90
2023-05-10T02:58:17.708Z,18.90
2023-05-10T03:00:44.185Z,18.90
2023-05-10T03:03:11.604Z,18.80
2023-05-10T03:05:38.128Z,18.90
2023-05-10T03:08:04.605Z,18.90
2023-05-10T03:10:35.645Z,18.90
2023-05-10T03:13:02.162Z,18.90
2023-05-10T03:15:28.696Z,18.90
2023-05-10T03:17:55.218Z,18.90
2023-05-10T03:20:21.771Z,18.90
2023-05-10T03:22:48.236Z,18.90
2023-05-10T03:25:14.737Z,18.90
2023-05-10T03:27:41.223Z,18.90
2023-05-10T03:30:07.730Z,18.90
2023-05-10T03:32:34.290Z,18.90
2023-05-10T03:35:00.809Z,18.90
2023-05-10T03:37:27.293Z,18.90
2023-05-10T03:39:59.654Z,18.90
2023-05-10T03:42:26.157Z,18.90
2023-05-10T03:44:52.683Z,18.80
2023-05-10T03:47:19.192Z,18.90
2023-05-10T03:49:45.654Z,18.80
2023-05-10T03:52:12.141Z,18.90
2023-05-10T03:54:38.597Z,18.90
2023-05-10T03:57:05.090Z,18.80
2023-05-10T03:59:31.595Z,18.90
2023-05-10T04:01:58.196Z,18.90
2023-05-10T04:04:24.691Z,18.80
2023-05-10T04:06:51.182Z,18.80
2023-05-10T04:09:17.662Z,18.80
2023-05-10T04:11:44.159Z,18.80
2023-05-10T04:14:11.633Z,18.80
2023-05-10T04:16:38.182Z,18.80
2023-05-10T04:19:04.712Z,18.80
2023-05-10T04:21:31.218Z,18.80
2023-05-10T04:23:57.654Z,18.80
2023-05-10T04:26:24.155Z,18.80
2023-05-10T04:28:50.633Z,18.80
2023-05-10T04:31:17.201Z,18.80
2023-05-10T04:33:43.704Z,18.90
2023-05-10T04:36:10.193Z,18.80
2023-05-10T04:38:36.673Z,18.80
2023-05-10T04:41:03.195Z,18.80
2023-05-10T04:43:35.757Z,18.80
2023-05-10T04:46:02.390Z,18.80
2023-05-10T04:48:28.935Z,18.80
2023-05-10T04:50:55.430Z,18.90
2023-05-10T04:53:21.947Z,18.80
2023-05-10T04:55:48.445Z,19.00
2023-05-10T04:58:14.947Z,18.80
2023-05-10T05:00:41.431Z,18.80
2023-05-10T05:03:08.043Z,18.80
2023-05-10T05:05:34.593Z,18.80
2023-05-10T05:08:01.088Z,18.80
2023-05-10T05:10:27.560Z,18.80
2023-05-10T05:12:54.072Z,18.80
2023-05-10T05:15:20.650Z,18.80
2023-05-10T05:17:47.189Z,18.80
2023-05-10T05:20:13.717Z,18.80
2023-05-10T05:22:40.203Z,18.80
2023-05-10T05:25:06.667Z,18.80
2023-05-10T05:27:33.148Z,18.80
2023-05-10T05:29:59.781Z,18.90
2023-05-10T05:32:26.319Z,18.80
2023-05-10T05:34:52.807Z,18.80
2023-05-10T05:37:19.311Z,18.80
2023-05-10T05:39:45.790Z,18.80
2023-05-10T05:42:12.274Z,18.80
2023-05-10T05:44:38.758Z,18.80
2023-05-10T05:47:05.226Z,18.80
2023-05-10T05:49:31.726Z,18.80
2023-05-10T05:51:58.198Z,18.80
2023-05-10T05:54:24.693Z,18.80
2023-05-10T05:56:51.247Z,18.80
2023-05-10T05:59:17.764Z,18.80
2023-05-10T06:01:44.334Z,18.70
2023-05-10T06:04:10.929Z,18.70
2023-05-10T06:06:37.431Z,18.70
2023-05-10T06:09:03.927Z,18.80
2023-05-10T06:11:30.406Z,18.80
2023-05-10T06:13:56.892Z,18.80
2023-05-10T06:16:23.418Z,19.00
2023-05-10T06:18:49.975Z,18.80
2023-05-10T06:21:16.457Z,18.80
2023-05-10T06:23:42.952Z,18.80
2023-05-10T06:26:09.410Z,18.80
2023-05-10T06:28:35.923Z,18.80
2023-05-10T06:31:02.469Z,18.80
2023-05-10T06:33:28.990Z,18.80
2023-05-10T06:35:55.468Z,18.80
2023-05-10T06:38:21.950Z,18.80
2023-05-10T06:40:48.419Z,18.80
2023-05-10T06:43:14.953Z,18.90
2023-05-10T06:45:41.437Z,18.80
2023-05-10T06:48:07.959Z,18.80
2023-05-10T06:50:34.491Z,18.90
2023-05-10T06:53:00.967Z,18.80
2023-05-10T06:55:27.517Z,18.80
2023-05-10T06:57:54.020Z,18.80
2023-05-10T07:00:20.814Z,18.80
2023-05-10T07:02:47.641Z,18.90
2023-05-10T07:05:14.180Z,18.90
2023-05-10T07:07:40.652Z,18.90
2023-05-10T07:10:07.212Z,18.80
2023-05-10T07:12:33.745Z,18.80
2023-05-10T07:15:00.312Z,18.90
2023-05-10T07:17:26.933Z,18.80
2023-05-10T07:19:53.504Z,18.70
2023-05-10T07:22:19.976Z,18.80
2023-05-10T07:24:46.498Z,18.80
2023-05-10T07:27:12.970Z,18.80
2023-05-10T07:29:39.457Z,18.90
2023-05-10T07:32:05.976Z,18.90
2023-05-10T07:34:32.531Z,18.90
2023-05-10T07:36:59.019Z,18.90
2023-05-10T07:39:27.484Z,18.90
2023-05-10T07:41:54.595Z,18.90
2023-05-10T07:44:23.925Z,18.90
2023-05-10T07:46:50.429Z,18.90
2023-05-10T07:49:16.940Z,18.90
2023-05-10T07:51:43.487Z,18.90
2023-05-10T07:54:10.102Z,18.90
2023-05-10T07:56:36.615Z,19.00
2023-05-10T07:59:03.112Z,18.90
2023-05-10T08:01:29.716Z,18.70
2023-05-10T08:03:56.268Z,18.80
2023-05-10T08:06:22.779Z,18.90
2023-05-10T08:08:49.248Z,18.90
2023-05-10T08:11:15.745Z,18.90
2023-05-10T08:13:42.215Z,19.00
2023-05-10T08:16:08.788Z,19.00
2023-05-10T08:18:35.328Z,19.00
2023-05-10T08:21:01.869Z,19.00
2023-05-10T08:23:28.358Z,19.00
2023-05-10T08:25:54.857Z,19.00
2023-05-10T08:28:21.355Z,19.00
2023-05-10T08:30:47.845Z,19.00
2023-05-10T08:33:14.361Z,19.00
2023-05-10T08:35:40.864Z,19.00
2023-05-10T08:38:07.405Z,19.00
2023-05-10T08:40:35.883Z,19.00
2023-05-10T08:43:02.344Z,19.00
2023-05-10T08:45:28.815Z,19.00
2023-05-10T08:47:55.364Z,19.00
2023-05-10T08:50:21.909Z,19.00
2023-05-10T08:52:48.417Z,19.00
2023-05-10T08:55:15.078Z,19.00
2023-05-10T08:57:41.653Z,19.00
2023-05-10T09:00:08.115Z,19.00
2023-05-10T09:02:34.627Z,19.00
2023-05-10T09:05:01.346Z,19.00
2023-05-10T09:07:27.909Z,19.00
2023-05-10T09:09:54.386Z,19.00
2023-05-10T09:12:20.871Z,19.00
2023-05-10T09:14:47.361Z,19.00
2023-05-10T09:17:13.911Z,19.00
2023-05-10T09:19:40.411Z,19.00
2023-05-10T09:22:06.900Z,19.00
2023-05-10T09:24:33.389Z,19.00
2023-05-10T09:26:59.894Z,19.00
2023-05-10T09:29:26.390Z,19.00
2023-05-10T09:31:52.857Z,19.00
2023-05-10T09:34:19.343Z,19.00
2023-05-10T09:36:45.830Z,19.10
2023-05-10T09:39:12.323Z,18.90
2023-05-10T09:41:38.802Z,19.10
2023-05-10T09:44:05.313Z,19.00
2023-05-10T09:46:31.855Z,19.00
2023-05-10T09:48:58.368Z,19.00
2023-05-10T09:51:24.850Z,19.00
2023-05-10T09:53:51.338Z,19.00
2023-05-10T09:56:17.805Z,19.10
2023-05-10T09:58:44.298Z,19.10
2023-05-10T10:01:10.824Z,19.10
2023-05-10T10:03:37.356Z,19.00
2023-05-10T10:06:03.857Z,19.10
2023-05-10T10:08:30.392Z,19.10
2023-05-10T10:11:00.084Z,19.00
2023-05-10T10:13:29.975Z,19.10
2023-05-10T10:15:56.493Z,19.10
2023-05-10T10:18:23.063Z,19.10
2023-05-10T10:20:49.545Z,19.10
2023-05-10T10:23:17.561Z,19.10
2023-05-10T10:25:44.417Z,19.10
2023-05-10T10:28:10.895Z,19.10
2023-05-10T10:30:37.392Z,19.10
2023-05-10T10:33:10.209Z,19.10
2023-05-10T10:35:43.336Z,19.10
2023-05-10T10:38:11.978Z,19.10
2023-05-10T10:40:38.479Z,19.10
2023-05-10T10:43:04.949Z,19.10
2023-05-10T10:45:31.488Z,19.10
2023-05-10T10:47:58.029Z,19.10
2023-05-10T10:50:24.573Z,19.10
2023-05-10T10:52:51.065Z,19.10
2023-05-10T10:55:17.785Z,19.10
2023-05-10T10:57:44.395Z,19.10
2023-05-10T11:00:10.903Z,19.10
2023-05-10T11:02:37.422Z,19.10
2023-05-10T11:05:04.056Z,19.10
2023-05-10T11:07:36.227Z,19.10
2023-05-10T11:10:02.729Z,19.10
2023-05-10T11:12:29.195Z,19.10
2023-05-10T11:14:55.672Z,19.10
2023-05-10T11:17:22.168Z,19.20
2023-05-10T11:19:48.635Z,19.10
2023-05-10T11:22:15.108Z,19.10
2023-05-10T11:24:41.592Z,19.10
2023-05-10T11:27:08.083Z,19.10
2023-05-10T11:29:34.586Z,19.10
2023-05-10T11:32:06.090Z,19.10
2023-05-10T11:34:32.593Z,19.10
2023-05-10T11:36:59.102Z,19.20
2023-05-10T11:39:25.678Z,19.20
2023-05-10T11:41:52.192Z,19.20
2023-05-10T11:44:18.677Z,19.20
2023-05-10T11:46:45.268Z,19.20
2023-05-10T11:49:11.776Z,19.20
2023-05-10T11:51:38.303Z,19.20
2023-05-10T11:54:04.807Z,19.20
2023-05-10T11:56:31.292Z,19.20
2023-05-10T11:58:57.824Z,19.10
2023-05-10T12:01:24.335Z,19.10
2023-05-10T12:03:50.970Z,19.20
2023-05-10T12:06:17.559Z,19.20
2023-05-10T12:08:44.020Z,19.20
2023-05-10T12:11:10.516Z,19.20
2023-05-10T12:13:37.022Z,19.20
2023-05-10T12:16:06.114Z,19.20
2023-05-10T12:18:32.667Z,19.20
2023-05-10T12:20:59.164Z,19.20
2023-05-10T12:23:25.650Z,19.00
2023-05-10T12:25:52.150Z,19.10
2023-05-10T12:28:18.665Z,19.10
2023-05-10T12:30:45.149Z,19.10
2023-05-10T12:33:13.555Z,19.20
2023-05-10T12:35:41.776Z,19.20
2023-05-10T12:38:09.523Z,19.20
2023-05-10T12:40:36.032Z,19.20
2023-05-10T12:43:06.088Z,19.20
2023-05-10T12:45:32.636Z,19.20
2023-05-10T12:47:59.174Z,19.20
2023-05-10T12:50:30.200Z,19.20
2023-05-10T12:52:56.678Z,19.20
2023-05-10T12:55:23.153Z,19.20
2023-05-10T12:57:49.628Z,19.20
2023-05-10T13:00:16.193Z,19.20
2023-05-10T13:02:48.128Z,19.20
2023-05-10T13:05:14.700Z,19.20
2023-05-10T13:07:41.189Z,19.20
2023-05-10T13:10:07.700Z,19.20
2023-05-10T13:12:34.189Z,19.20
2023-05-10T13:15:00.722Z,19.20
2023-05-10T13:17:27.244Z,19.20
2023-05-10T13:19:53.749Z,19.20
2023-05-10T13:22:28.751Z,19.20
2023-05-10T13:25:03.298Z,19.20
2023-05-10T13:27:29.828Z,19.20
2023-05-10T13:29:56.336Z,19.20
2023-05-10T13:32:22.849Z,19.20
2023-05-10T13:34:49.397Z,19.20
2023-05-10T13:37:15.886Z,19.30
2023-05-10T13:39:42.367Z,19.30
2023-05-10T13:42:08.851Z,19.30
2023-05-10T13:44:35.330Z,19.30
2023-05-10T13:47:01.988Z,19.30
2023-05-10T13:49:28.617Z,19.20
2023-05-10T13:51:55.087Z,19.30
2023-05-10T13:54:21.555Z,19.30
2023-05-10T13:56:48.022Z,19.30
2023-05-10T13:59:14.504Z,19.30
2023-05-10T14:01:41.056Z,19.30
2023-05-10T14:04:07.703Z,19.30
2023-05-10T14:06:34.282Z,19.30
2023-05-10T14:09:00.773Z,19.30
2023-05-10T14:11:27.290Z,19.30
2023-05-10T14:13:53.787Z,19.40
2023-05-10T14:16:20.364Z,19.30
2023-05-10T14:18:46.896Z,19.30
2023-05-10T14:21:13.414Z,19.30
2023-05-10T14:23:39.923Z,19.30
2023-05-10T14:26:06.411Z,19.30
2023-05-10T14:28:32.941Z,19.30
2023-05-10T14:30:59.437Z,19.30
2023-05-10T14:33:25.959Z,19.30
2023-05-10T14:35:52.438Z,19.30
2023-05-10T14:38:18.913Z,19.20
2023-05-10T14:40:45.410Z,19.30
2023-05-10T14:43:12.160Z,19.30
2023-05-10T14:45:38.700Z,19.30
2023-05-10T14:48:05.211Z,19.30
2023-05-10T14:50:36.871Z,19.30
2023-05-10T14:53:04.058Z,19.30
2023-05-10T14:55:30.533Z,19.40
2023-05-10T14:57:56.990Z,19.40
2023-05-10T15:00:23.488Z,19.40
2023-05-10T15:02:50.665Z,19.40
2023-05-10T15:05:17.887Z,19.40
2023-05-10T15:07:44.979Z,19.40
2023-05-10T15:10:11.452Z,19.40
2023-05-10T15:12:37.950Z,19.40
2023-05-10T15:15:04.449Z,19.40
2023-05-10T15:17:36.259Z,19.40
2023-05-10T15:20:02.784Z,19.40
2023-05-10T15:22:29.310Z,19.40
2023-05-10T15:24:55.802Z,19.40
2023-05-10T15:27:22.286Z,19.40
2023-05-10T15:29:48.745Z,19.40
2023-05-10T15:32:15.225Z,19.40
2023-05-10T15:34:41.688Z,19.40
2023-05-10T15:37:08.151Z,19.40
2023-05-10T15:39:34.623Z,19.40
2023-05-10T15:42:01.117Z,19.40
2023-05-10T15:44:27.606Z,19.40
2023-05-10T15:46:54.134Z,19.40
2023-05-10T15:49:20.775Z,19.40
2023-05-10T15:51:47.287Z,19.50
2023-05-10T15:54:13.784Z,19.50
2023-05-10T15:56:40.261Z,19.50
2023-05-10T15:59:06.777Z,19.50
2023-05-10T16:01:33.339Z,19.50
2023-05-10T16:03:59.879Z,19.50
2023-05-10T16:06:30.284Z,19.50
2023-05-10T16:09:00.297Z,19.50
2023-05-10T16:11:26.781Z,19.50
2023-05-10T16:13:53.293Z,19.50
2023-05-10T16:16:19.847Z,19.50
2023-05-10T16:18:46.479Z,19.50
2023-05-10T16:21:13.061Z,19.40
2023-05-10T16:23:39.546Z,19.50
2023-05-10T16:26:06.035Z,19.40
2023-05-10T16:28:32.537Z,19.50
2023-05-10T16:30:59.079Z,19.40
2023-05-10T16:33:25.602Z,19.40
2023-05-10T16:35:52.106Z,19.40
2023-05-10T16:38:18.595Z,19.50
2023-05-10T16:40:45.095Z,19.40
2023-05-10T16:43:11.569Z,19.40
2023-05-10T16:45:38.093Z,19.40
2023-05-10T16:48:04.571Z,19.40
2023-05-10T16:50:31.090Z,19.40
2023-05-10T16:52:57.552Z,19.40
2023-05-10T16:55:26.211Z,19.40
2023-05-10T16:57:52.987Z,19.50
2023-05-10T17:00:19.472Z,19.50
2023-05-10T17:02:48.417Z,19.40
2023-05-10T17:05:15.059Z,19.50
2023-05-10T17:07:41.692Z,19.50
2023-05-10T17:10:08.176Z,19.50
2023-05-10T17:12:34.672Z,19.40
2023-05-10T17:15:01.357Z,19.50
2023-05-10T17:17:27.928Z,19.50
2023-05-10T17:19:54.373Z,19.50
2023-05-10T17:22:20.856Z,19.40
2023-05-10T17:24:47.336Z,19.40
2023-05-10T17:27:13.816Z,19.50
2023-05-10T17:29:40.304Z,19.40
2023-05-10T17:32:06.836Z,19.40
2023-05-10T17:34:33.382Z,19.50
2023-05-10T17:36:59.851Z,19.40
2023-05-10T17:39:26.330Z,19.50
2023-05-10T17:41:52.841Z,19.40
2023-05-10T17:44:19.322Z,19.40
2023-05-10T17:46:45.855Z,19.50
2023-05-10T17:49:12.333Z,19.50
2023-05-10T17:51:38.838Z,19.40
2023-05-10T17:54:05.321Z,19.40
2023-05-10T17:56:31.799Z,19.40
2023-05-10T17:58:58.279Z,19.40
2023-05-10T18:01:24.790Z,19.40
2023-05-10T18:03:51.262Z,19.40
2023-05-10T18:06:17.757Z,19.40
2023-05-10T18:08:44.226Z,19.40
2023-05-10T18:11:10.711Z,19.40
2023-05-10T18:13:37.182Z,19.40
2023-05-10T18:16:03.670Z,19.40
2023-05-10T18:18:30.262Z,19.40
2023-05-10T18:20:56.807Z,19.40
2023-05-10T18:23:23.466Z,19.40
2023-05-10T18:25:49.961Z,19.40
2023-05-10T18:28:16.486Z,19.40
2023-05-10T18:30:43.028Z,19.40
2023-05-10T18:33:09.691Z,19.40
2023-05-10T18:35:36.165Z,19.30
2023-05-10T18:38:02.652Z,19.30
2023-05-10T18:40:29.124Z,19.30
2023-05-10T18:42:55.614Z,19.30
2023-05-10T18:45:22.100Z,19.30
2023-05-10T18:47:48.679Z,19.30
2023-05-10T18:50:15.183Z,19.30
2023-05-10T18:52:41.675Z,19.30
2023-05-10T18:55:08.193Z,19.30
2023-05-10T18:57:34.677Z,19.30
2023-05-10T19:00:01.221Z,19.30
2023-05-10T19:02:27.760Z,19.30
2023-05-10T19:04:54.310Z,19.30
2023-05-10T19:07:20.816Z,19.30
2023-05-10T19:09:47.285Z,19.30
2023-05-10T19:12:13.775Z,19.30
2023-05-10T19:14:40.278Z,19.30
2023-05-10T19:17:06.976Z,19.30
2023-05-10T19:19:33.734Z,19.30
2023-05-10T19:22:00.304Z,19.30
2023-05-10T19:24:26.847Z,19.30
2023-05-10T19:26:53.413Z,19.30
2023-05-10T19:29:19.910Z,19.30
2023-05-10T19:31:46.526Z,19.30
2023-05-10T19:34:13.031Z,19.30
2023-05-10T19:36:39.553Z,19.20
2023-05-10T19:39:06.036Z,19.20
2023-05-10T19:41:32.569Z,19.30
2023-05-10T19:43:59.108Z,19.20
2023-05-10T19:46:25.616Z,19.20
2023-05-10T19:48:52.265Z,19.20
2023-05-10T19:51:18.745Z,19.20
2023-05-10T19:53:48.483Z,19.20
2023-05-10T19:56:14.969Z,19.20
2023-05-10T19:58:41.449Z,19.20
2023-05-10T20:01:08.120Z,19.20
2023-05-10T20:03:34.699Z,19.20
2023-05-10T20:06:01.225Z,19.20
2023-05-10T20:08:27.678Z,19.20
2023-05-10T20:10:54.183Z,19.20
2023-05-10T20:13:20.677Z,19.20
2023-05-10T20:15:47.192Z,19.20
2023-05-10T20:18:13.716Z,19.20
2023-05-10T20:20:40.346Z,19.20
2023-05-10T20:23:06.803Z,19.20
2023-05-10T20:25:33.290Z,19.10
2023-05-10T20:27:59.767Z,19.10
2023-05-10T20:30:26.260Z,19.10
2023-05-10T20:32:52.848Z,19.10
2023-05-10T20:35:19.392Z,19.10
2023-05-10T20:37:45.882Z,19.10
2023-05-10T20:40:12.365Z,19.10
2023-05-10T20:42:38.858Z,19.10
2023-05-10T20:45:06.514Z,19.10
2023-05-10T20:47:33.042Z,19.10
2023-05-10T20:49:59.547Z,19.10
2023-05-10T20:52:26.018Z,19.10
2023-05-10T20:54:52.500Z,19.10
2023-05-10T20:57:18.989Z,19.10
2023-05-10T20:59:45.478Z,19.10
2023-05-10T21:02:11.970Z,19.10
2023-05-10T21:04:38.460Z,19.10
2023-05-10T21:07:05.027Z,19.10
2023-05-10T21:09:31.533Z,19.10
2023-05-10T21:11:58.040Z,19.10
2023-05-10T21:14:24.513Z,19.10
2023-05-10T21:16:50.997Z,19.10
2023-05-10T21:19:17.480Z,19.00
2023-05-10T21:21:43.977Z,19.10
2023-05-10T21:24:10.486Z,19.10
2023-05-10T21:26:36.955Z,19.00
2023-05-10T21:29:03.440Z,19.00
2023-05-10T21:31:29.982Z,19.10
2023-05-10T21:33:56.497Z,19.00
2023-05-10T21:36:23.055Z,19.10
2023-05-10T21:38:49.552Z,19.00
2023-05-10T21:41:16.037Z,19.00
2023-05-10T21:43:42.526Z,19.00
2023-05-10T21:46:09.022Z,19.00
2023-05-10T21:48:35.563Z,19.00
2023-05-10T21:51:02.096Z,19.00
2023-05-10T21:53:28.656Z,19.10
2023-05-10T21:55:55.175Z,19.00
2023-05-10T21:58:21.678Z,19.00
2023-05-10T22:00:48.157Z,19.00
2023-05-10T22:03:14.910Z,19.00
2023-05-10T22:05:41.579Z,19.00
2023-05-10T22:08:08.086Z,19.00
2023-05-10T22:10:34.608Z,19.00
2023-05-10T22:13:01.097Z,19.00
2023-05-10T22:15:27.578Z,19.10
2023-05-10T22:17:54.179Z,19.00
2023-05-10T22:20:20.704Z,19.00
2023-05-10T22:22:47.187Z,19.00
2023-05-10T22:25:13.659Z,18.90
2023-05-10T22:27:40.148Z,19.00
2023-05-10T22:30:06.640Z,19.00
2023-05-10T22:32:33.154Z,19.00
2023-05-10T22:34:59.657Z,19.00
2023-05-10T22:37:26.145Z,19.00
2023-05-10T22:39:52.632Z,19.00
2023-05-10T22:42:19.126Z,19.00
2023-05-10T22:44:45.657Z,19.00
2023-05-10T22:47:12.156Z,19.00
2023-05-10T22:49:38.644Z,19.00
2023-05-10T22:52:05.166Z,19.00
2023-05-10T22:54:32.699Z,19.00
2023-05-10T22:57:00.174Z,19.00
2023-05-10T22:59:26.648Z,19.00
2023-05-10T23:01:53.133Z,18.90
2023-05-10T23:04:19.657Z,19.00
2023-05-10T23:06:46.181Z,19.00
2023-05-10T23:09:12.675Z,19.00
2023-05-10T23:11:39.171Z,19.00
2023-05-10T23:14:05.636Z,18.90
2023-05-10T23:16:32.176Z,19.00
2023-05-10T23:18:58.758Z,18.90
2023-05-10T23:21:25.381Z,18.90
2023-05-10T23:23:51.925Z,19.00
2023-05-10T23:26:18.405Z,18.90
2023-05-10T23:28:44.893Z,19.00
2023-05-10T23:31:11.395Z,18.90
2023-05-10T23:33:37.884Z,18.90
2023-05-10T23:36:04.358Z,18.90
2023-05-10T23:38:30.830Z,19.00
2023-05-10T23:40:57.335Z,18.90
2023-05-10T23:43:23.807Z,18.90
2023-05-10T23:45:50.360Z,18.90
2023-05-10T23:48:16.867Z,18.90
2023-05-10T23:50:43.393Z,18.90
2023-05-10T23:53:09.890Z,18.90
2023-05-10T23:55:36.374Z,18.90
2023-05-10T23:58:02.865Z,18.90
